Edinburg, Pennsylvania
Current Conditions -  °F | °C
As of 7:13 AM on Sunday 25 Jan 2015 (Local Time) from KUCP Reporting Station
Haze Haze  
Wind Chill: 32°   Ceiling: 800
Heat Index: 32°   Visibility: 4mi
Dew Point: 32°   Wind: 0mph
Humidity: 100%   Direction: NA
Pressure: 29.75"   Gusts: NA
Location:  41.01°N, 80.44°W
Report Text: KUCP 251213Z AUTO 00000KT 4SM BR BKN008 00/00 A2975 RMK AO2 TSNO BKN V SCT SNB1158E13 P0000 $
Loading
Personal Weather Stations






























Interactive Weather Map New forecast layout! Learn more

10-Day Weather Forecast

Advertisements
Track Severe Weather on mobile